createdAt,value
2024-03-06T00:00:14.520Z,100875.88
2024-03-06T00:02:41.796Z,100874.47
2024-03-06T00:05:09.502Z,100872.13
2024-03-06T00:07:37.247Z,100873.72
2024-03-06T00:10:06.234Z,100884.34
2024-03-06T00:12:33.114Z,100884.56
2024-03-06T00:14:59.807Z,100890.56
2024-03-06T00:17:26.601Z,100888.75
2024-03-06T00:19:53.668Z,100902.41
2024-03-06T00:22:23.558Z,100897.06
2024-03-06T00:24:52.302Z,100902.25
2024-03-06T00:27:19.234Z,100900.19
2024-03-06T00:29:46.202Z,100903.94
2024-03-06T00:32:13.412Z,100901.72
2024-03-06T00:34:40.450Z,100908.34
2024-03-06T00:37:07.048Z,100909.53
2024-03-06T00:39:33.545Z,100912.09
2024-03-06T00:42:00.219Z,100917.75
2024-03-06T00:44:26.867Z,100912.09
2024-03-06T00:46:53.559Z,100920.44
2024-03-06T00:49:20.428Z,100927.03
2024-03-06T00:51:49.482Z,100928.56
2024-03-06T00:54:17.316Z,100936.09
2024-03-06T00:56:44.869Z,100932.44
2024-03-06T00:59:11.791Z,100938.97
2024-03-06T01:01:38.456Z,100943.88
2024-03-06T01:04:05.934Z,100945.84
2024-03-06T01:06:32.544Z,100949.28
2024-03-06T01:08:59.540Z,100953.34
2024-03-06T01:11:30.073Z,100961.63
2024-03-06T01:13:56.783Z,100954.06
2024-03-06T01:16:23.804Z,100969.53
2024-03-06T01:18:51.829Z,100964.50
2024-03-06T01:21:18.298Z,100957.03
2024-03-06T01:23:46.296Z,100960.94
2024-03-06T01:26:13.350Z,100961.44
2024-03-06T01:28:40.969Z,100966.13
2024-03-06T01:31:08.650Z,100965.50
2024-03-06T01:33:35.687Z,100970.03
2024-03-06T01:36:02.570Z,100965.00
2024-03-06T01:38:29.037Z,100959.31
2024-03-06T01:40:56.058Z,100959.78
2024-03-06T01:43:24.834Z,100965.47
2024-03-06T01:45:53.909Z,100980.41
2024-03-06T01:48:28.139Z,100974.56
2024-03-06T01:50:57.111Z,100973.28
2024-03-06T01:53:25.756Z,100979.78
2024-03-06T01:55:52.710Z,100983.31
2024-03-06T01:58:19.799Z,100977.94
2024-03-06T02:00:47.921Z,100993.75
2024-03-06T02:03:14.916Z,100980.75
2024-03-06T02:05:41.993Z,100990.31
2024-03-06T02:08:08.974Z,100987.72
2024-03-06T02:10:35.841Z,100986.38
2024-03-06T02:13:03.208Z,100994.81
2024-03-06T02:15:30.102Z,100988.63
2024-03-06T02:17:56.871Z,100980.63
2024-03-06T02:20:25.688Z,100982.72
2024-03-06T02:22:53.293Z,100985.81
2024-03-06T02:25:20.648Z,100976.19
2024-03-06T02:27:49.198Z,100973.94
2024-03-06T02:30:21.616Z,100987.09
2024-03-06T02:32:48.402Z,100978.81
2024-03-06T02:35:15.519Z,100974.03
2024-03-06T02:37:45.351Z,100980.03
2024-03-06T02:40:12.967Z,100977.06
2024-03-06T02:42:40.529Z,100979.81
2024-03-06T02:45:08.626Z,100977.41
2024-03-06T02:47:35.846Z,100985.41
2024-03-06T02:50:02.670Z,100978.38
2024-03-06T02:52:29.889Z,100973.22
2024-03-06T02:54:57.422Z,100978.25
2024-03-06T02:57:29.695Z,100982.34
2024-03-06T02:59:57.921Z,100982.06
2024-03-06T03:02:24.948Z,100981.72
2024-03-06T03:04:56.071Z,100979.81
2024-03-06T03:07:22.826Z,100993.16
2024-03-06T03:09:50.418Z,100987.84
2024-03-06T03:12:17.467Z,100985.91
2024-03-06T03:14:44.259Z,100986.72
2024-03-06T03:17:11.771Z,101002.78
2024-03-06T03:19:40.960Z,101004.94
2024-03-06T03:22:10.344Z,101007.84
2024-03-06T03:24:38.042Z,101007.81
2024-03-06T03:27:04.831Z,101015.63
2024-03-06T03:29:31.460Z,101008.53
2024-03-06T03:31:58.013Z,101015.53
2024-03-06T03:34:24.831Z,101017.78
2024-03-06T03:36:51.547Z,101027.38
2024-03-06T03:39:18.175Z,101033.22
2024-03-06T03:41:46.864Z,101036.28
2024-03-06T03:44:19.898Z,101042.31
2024-03-06T03:46:47.052Z,101036.88
2024-03-06T03:49:13.931Z,101029.94
2024-03-06T03:51:40.484Z,101033.28
2024-03-06T03:54:07.364Z,101032.81
2024-03-06T03:56:34.485Z,101031.66
2024-03-06T03:59:01.132Z,101038.19
2024-03-06T04:01:28.797Z,101046.50
2024-03-06T04:03:55.401Z,101041.13
2024-03-06T04:06:22.349Z,101045.88
2024-03-06T04:08:49.808Z,101046.66
2024-03-06T04:11:16.612Z,101050.69
2024-03-06T04:13:43.291Z,101054.25
2024-03-06T04:16:10.986Z,101058.50
2024-03-06T04:18:38.054Z,101057.38
2024-03-06T04:21:05.362Z,101062.75
2024-03-06T04:23:33.775Z,101072.09
2024-03-06T04:26:01.293Z,101063.09
2024-03-06T04:28:28.796Z,101069.25
2024-03-06T04:30:55.943Z,101072.97
2024-03-06T04:33:23.131Z,101070.28
2024-03-06T04:35:50.860Z,101071.06
2024-03-06T04:38:17.584Z,101064.34
2024-03-06T04:40:44.225Z,101083.44
2024-03-06T04:43:11.536Z,101081.84
2024-03-06T04:45:38.126Z,101087.50
2024-03-06T04:48:05.611Z,101094.28
2024-03-06T04:50:33.794Z,101090.22
2024-03-06T04:53:00.584Z,101090.31
2024-03-06T04:55:28.746Z,101093.38
2024-03-06T04:57:55.302Z,101098.72
2024-03-06T05:00:22.423Z,101100.13
2024-03-06T06:00:31.557Z,101168.56
2024-03-06T06:02:58.706Z,101169.41
2024-03-06T06:05:25.422Z,101168.19
2024-03-06T06:07:52.435Z,101169.69
2024-03-06T06:10:21.775Z,101179.38
2024-03-06T06:12:50.614Z,101179.53
2024-03-06T06:15:18.118Z,101183.31
2024-03-06T06:17:47.114Z,101193.56
2024-03-06T06:20:18.171Z,101197.47
2024-03-06T06:22:45.782Z,101205.25
2024-03-06T06:25:13.935Z,101200.00
2024-03-06T06:27:40.889Z,101199.88
2024-03-06T06:30:12.919Z,101204.75
2024-03-06T06:32:41.472Z,101201.28
2024-03-06T06:35:10.399Z,101208.81
2024-03-06T06:37:37.275Z,101210.44
2024-03-06T06:40:07.764Z,101217.78
2024-03-06T06:42:36.496Z,101219.72
2024-03-06T06:45:03.823Z,101220.88
2024-03-06T06:47:31.512Z,101222.16
2024-03-06T06:49:58.996Z,101217.97
2024-03-06T06:52:28.746Z,101227.03
2024-03-06T06:54:56.610Z,101230.63
2024-03-06T06:57:23.656Z,101235.44
2024-03-06T06:59:51.320Z,101245.38
2024-03-06T07:02:18.308Z,101242.34
2024-03-06T07:04:45.236Z,101249.00
2024-03-06T07:07:11.955Z,101255.16
2024-03-06T07:09:38.946Z,101252.06
2024-03-06T07:12:08.784Z,101257.97
2024-03-06T07:14:35.598Z,101252.00
2024-03-06T07:17:02.529Z,101263.34
2024-03-06T07:19:29.302Z,101261.16
2024-03-06T07:21:56.262Z,101263.91
2024-03-06T07:24:23.459Z,101264.25
2024-03-06T07:26:50.076Z,101263.00
2024-03-06T07:29:16.870Z,101268.56
2024-03-06T07:31:44.849Z,101265.84
2024-03-06T07:34:12.041Z,101264.53
2024-03-06T07:36:39.100Z,101265.84
2024-03-06T07:39:05.870Z,101267.31
2024-03-06T07:41:34.010Z,101266.69
2024-03-06T07:44:01.132Z,101267.03
2024-03-06T07:46:28.473Z,101261.03
2024-03-06T07:48:55.988Z,101265.44
2024-03-06T07:51:24.152Z,101270.81
2024-03-06T07:53:51.830Z,101273.38
2024-03-06T07:56:18.692Z,101277.94
2024-03-06T07:58:45.672Z,101282.19
2024-03-06T08:01:12.544Z,101281.72
2024-03-06T08:03:44.010Z,101282.19
2024-03-06T08:06:11.514Z,101280.78
2024-03-06T08:08:41.290Z,101279.78
2024-03-06T08:11:08.072Z,101289.19
2024-03-06T08:13:35.389Z,101293.19
2024-03-06T08:16:02.208Z,101295.44
2024-03-06T08:18:29.422Z,101296.13
2024-03-06T08:21:09.217Z,101294.53
2024-03-06T08:23:36.188Z,101296.94
2024-03-06T08:26:02.872Z,101298.94
2024-03-06T08:28:30.029Z,101297.91
2024-03-06T08:30:56.743Z,101302.66
2024-03-06T08:33:24.316Z,101308.06
2024-03-06T08:35:51.904Z,101307.75
2024-03-06T08:38:18.788Z,101302.38
2024-03-06T08:40:46.806Z,101307.09
2024-03-06T08:43:16.711Z,101318.97
2024-03-06T08:45:44.062Z,101320.75
2024-03-06T08:48:11.339Z,101323.69
2024-03-06T08:50:39.111Z,101327.47
2024-03-06T08:53:05.990Z,101327.94
2024-03-06T08:55:32.663Z,101330.38
2024-03-06T08:57:59.702Z,101330.22
2024-03-06T09:00:27.783Z,101332.19
2024-03-06T09:02:54.606Z,101326.00
2024-03-06T09:05:23.022Z,101335.78
2024-03-06T09:07:49.685Z,101335.94
2024-03-06T09:10:19.900Z,101336.28
2024-03-06T09:12:46.937Z,101330.38
2024-03-06T09:15:15.725Z,101335.44
2024-03-06T09:17:43.554Z,101334.91
2024-03-06T09:20:14.627Z,101326.88
2024-03-06T09:22:43.369Z,101311.88
2024-03-06T09:25:14.773Z,101329.16
2024-03-06T09:27:41.573Z,101322.06
2024-03-06T09:30:10.116Z,101326.78
2024-03-06T09:32:38.781Z,101329.59
2024-03-06T09:35:07.763Z,101335.41
2024-03-06T09:37:35.288Z,101338.09
2024-03-06T09:40:02.149Z,101334.44
2024-03-06T09:42:29.556Z,101333.97
2024-03-06T09:44:56.328Z,101338.25
2024-03-06T09:47:27.860Z,101339.19
2024-03-06T09:49:55.187Z,101337.25
2024-03-06T09:52:26.093Z,101341.06
2024-03-06T09:54:56.717Z,101341.22
2024-03-06T09:57:24.601Z,101339.19
2024-03-06T09:59:51.745Z,101334.72
2024-03-06T10:02:31.693Z,101339.88
2024-03-06T10:04:58.523Z,101335.69
2024-03-06T10:07:25.248Z,101326.09
2024-03-06T10:09:52.032Z,101327.09
2024-03-06T10:12:21.889Z,101340.03
2024-03-06T10:14:52.978Z,101326.81
2024-03-06T10:17:24.033Z,101332.69
2024-03-06T10:19:53.590Z,101322.47
2024-03-06T10:22:21.690Z,101321.59
2024-03-06T10:24:48.841Z,101325.69
2024-03-06T10:27:18.903Z,101331.53
2024-03-06T10:29:45.805Z,101332.84
2024-03-06T10:32:17.316Z,101338.47
2024-03-06T10:34:46.025Z,101326.50
2024-03-06T10:37:12.784Z,101328.56
2024-03-06T10:39:45.213Z,101331.81
2024-03-06T10:42:14.372Z,101333.19
2024-03-06T10:44:52.497Z,101333.31
2024-03-06T10:47:20.035Z,101333.44
2024-03-06T10:49:47.672Z,101330.66
2024-03-06T10:52:17.739Z,101330.59
2024-03-06T10:54:47.278Z,101334.13
2024-03-06T10:57:15.305Z,101330.00
2024-03-06T10:59:44.140Z,101329.44
2024-03-06T11:02:11.404Z,101328.16
2024-03-06T11:04:41.608Z,101328.09
2024-03-06T11:07:11.831Z,101327.28
2024-03-06T11:09:40.787Z,101326.50
2024-03-06T11:12:08.267Z,101324.69
2024-03-06T11:14:38.515Z,101333.34
2024-03-06T11:17:07.578Z,101328.06
2024-03-06T11:20:07.676Z,101324.13
2024-03-06T11:22:56.689Z,101320.91
2024-03-06T11:25:48.199Z,101321.69
2024-03-06T11:28:26.311Z,101328.19
2024-03-06T11:31:13.042Z,101318.88
2024-03-06T11:33:44.959Z,101320.75
2024-03-06T11:36:31.016Z,101322.19
2024-03-06T11:39:07.477Z,101332.03
2024-03-06T11:41:48.699Z,101323.19
2024-03-06T11:44:22.316Z,101328.09
2024-03-06T11:46:50.395Z,101326.28
2024-03-06T11:49:23.079Z,101320.09
2024-03-06T11:51:50.145Z,101323.16
2024-03-06T11:54:19.031Z,101319.59
2024-03-06T11:56:48.416Z,101317.53
2024-03-06T11:59:16.062Z,101314.13
2024-03-06T12:01:43.504Z,101317.97
2024-03-06T12:04:10.526Z,101308.63
2024-03-06T12:06:38.515Z,101305.81
2024-03-06T12:09:05.159Z,101298.88
2024-03-06T12:11:32.435Z,101300.78
2024-03-06T12:13:59.633Z,101301.16
2024-03-06T12:16:26.710Z,101308.69
2024-03-06T12:19:00.471Z,101317.59
2024-03-06T12:21:33.488Z,101327.09
2024-03-06T12:24:07.652Z,101319.16
2024-03-06T12:26:34.465Z,101318.59
2024-03-06T12:29:06.894Z,101324.06
2024-03-06T12:31:36.973Z,101322.94
2024-03-06T12:34:05.419Z,101318.44
2024-03-06T12:36:34.233Z,101318.53
2024-03-06T12:39:02.149Z,101319.31
2024-03-06T12:41:30.876Z,101315.66
2024-03-06T12:43:58.073Z,101320.47
2024-03-06T12:46:25.170Z,101318.16
2024-03-06T12:48:52.202Z,101322.56
2024-03-06T12:51:18.819Z,101322.03
2024-03-06T12:53:46.370Z,101327.81
2024-03-06T12:56:13.296Z,101323.84
2024-03-06T12:58:39.838Z,101327.47
2024-03-06T13:01:06.795Z,101325.00
2024-03-06T13:03:33.666Z,101321.59
2024-03-06T13:06:00.576Z,101320.50
2024-03-06T13:08:27.904Z,101322.34
2024-03-06T13:10:54.630Z,101316.38
2024-03-06T13:13:21.783Z,101313.75
2024-03-06T13:15:49.522Z,101321.50
2024-03-06T13:18:17.693Z,101313.56
2024-03-06T13:20:45.383Z,101311.16
2024-03-06T13:23:13.001Z,101310.31
2024-03-06T13:25:40.383Z,101302.66
2024-03-06T13:28:07.286Z,101312.38
2024-03-06T13:30:34.292Z,101307.44
2024-03-06T13:33:01.221Z,101304.97
2024-03-06T13:35:28.132Z,101305.63
2024-03-06T13:37:58.262Z,101309.16
2024-03-06T13:40:27.053Z,101310.41
2024-03-06T13:42:53.712Z,101306.38
2024-03-06T13:45:20.343Z,101306.69
2024-03-06T13:47:47.234Z,101304.81
2024-03-06T13:50:15.707Z,101309.28
2024-03-06T13:52:43.317Z,101314.44
2024-03-06T13:55:10.801Z,101304.75
2024-03-06T13:57:39.586Z,101305.97
2024-03-06T14:00:13.418Z,101306.34
2024-03-06T14:02:41.068Z,101304.44
2024-03-06T14:05:08.285Z,101301.03
2024-03-06T14:07:35.543Z,101302.72
2024-03-06T14:10:05.112Z,101305.59
2024-03-06T14:12:33.600Z,101299.09
2024-03-06T14:15:00.591Z,101312.44
2024-03-06T14:17:27.138Z,101310.22
2024-03-06T14:19:53.778Z,101315.44
2024-03-06T14:22:20.441Z,101314.47
2024-03-06T14:24:47.316Z,101314.63
2024-03-06T14:27:17.253Z,101306.88
2024-03-06T14:29:45.921Z,101311.16
2024-03-06T14:32:12.711Z,101316.91
2024-03-06T14:34:40.339Z,101317.75
2024-03-06T14:37:07.417Z,101313.50
2024-03-06T14:39:34.330Z,101315.19
2024-03-06T14:42:01.018Z,101315.25
2024-03-06T14:44:27.639Z,101319.47
2024-03-06T14:46:54.484Z,101317.16
2024-03-06T14:49:21.210Z,101318.53
2024-03-06T14:51:47.895Z,101316.91
2024-03-06T14:54:16.501Z,101320.03
2024-03-06T14:56:43.182Z,101320.81
2024-03-06T14:59:09.821Z,101318.13
2024-03-06T15:01:38.587Z,101317.97
2024-03-06T15:04:05.468Z,101313.09
2024-03-06T15:06:32.683Z,101321.22
2024-03-06T15:09:00.516Z,101320.34
2024-03-06T15:11:30.653Z,101318.13
2024-03-06T15:13:57.961Z,101319.31
2024-03-06T15:16:25.059Z,101307.72
2024-03-06T15:18:56.127Z,101318.13
2024-03-06T15:21:25.086Z,101319.47
2024-03-06T15:23:52.460Z,101321.75
2024-03-06T15:26:19.788Z,101319.69
2024-03-06T15:28:46.378Z,101321.53
2024-03-06T15:31:12.958Z,101316.59
2024-03-06T15:33:39.550Z,101319.66
2024-03-06T15:36:06.976Z,101322.47
2024-03-06T15:38:33.600Z,101318.97
2024-03-06T15:41:00.271Z,101316.38
2024-03-06T15:43:27.353Z,101321.59
2024-03-06T15:45:56.163Z,101316.38
2024-03-06T15:48:25.733Z,101316.69
2024-03-06T15:50:53.439Z,101318.22
2024-03-06T15:53:20.243Z,101317.25
2024-03-06T15:55:46.766Z,101316.50
2024-03-06T15:58:13.404Z,101318.41
2024-03-06T16:00:40.017Z,101328.31
2024-03-06T16:03:06.716Z,101321.47
2024-03-06T16:05:33.772Z,101317.81
2024-03-06T16:08:05.147Z,101324.22
2024-03-06T16:10:33.008Z,101319.84
2024-03-06T16:12:59.518Z,101317.09
2024-03-06T16:15:26.538Z,101320.84
2024-03-06T16:17:53.564Z,101326.50
2024-03-06T16:20:21.324Z,101325.38
2024-03-06T16:22:48.106Z,101321.72
2024-03-06T16:25:15.204Z,101319.97
2024-03-06T16:27:42.403Z,101325.50
2024-03-06T16:30:11.180Z,101326.81
2024-03-06T16:32:37.862Z,101340.59
2024-03-06T16:35:05.257Z,101330.63
2024-03-06T16:37:32.495Z,101348.13
2024-03-06T16:39:59.090Z,101343.50
2024-03-06T16:42:25.709Z,101350.19
2024-03-06T16:44:52.775Z,101347.44
2024-03-06T16:47:19.474Z,101345.81
2024-03-06T16:49:46.188Z,101348.84
2024-03-06T16:52:14.299Z,101358.41
2024-03-06T16:54:41.997Z,101357.41
2024-03-06T16:57:11.714Z,101360.94
2024-03-06T16:59:39.054Z,101361.59
2024-03-06T17:02:06.414Z,101356.38
2024-03-06T17:04:33.349Z,101358.06
2024-03-06T17:07:02.265Z,101368.19
2024-03-06T17:09:29.037Z,101360.44
2024-03-06T17:11:55.752Z,101373.09
2024-03-06T17:14:22.317Z,101366.19
2024-03-06T17:16:48.892Z,101370.84
2024-03-06T17:19:15.791Z,101368.25
2024-03-06T17:21:42.700Z,101372.09
2024-03-06T17:24:09.410Z,101366.69
2024-03-06T17:26:39.073Z,101375.06
2024-03-06T17:29:08.316Z,101378.13
2024-03-06T17:31:38.390Z,101384.75
2024-03-06T17:34:06.969Z,101384.75
2024-03-06T17:36:37.225Z,101386.66
2024-03-06T17:39:04.630Z,101392.03
2024-03-06T17:41:31.985Z,101385.97
2024-03-06T17:43:59.025Z,101388.63
2024-03-06T17:46:27.058Z,101397.16
2024-03-06T17:48:53.583Z,101408.91
2024-03-06T17:51:22.746Z,101397.50
2024-03-06T17:53:49.338Z,101400.75
2024-03-06T17:56:16.027Z,101401.44
2024-03-06T17:58:42.848Z,101404.72
2024-03-06T18:01:09.496Z,101413.66
2024-03-06T18:03:36.490Z,101413.47
2024-03-06T18:06:03.060Z,101410.22
2024-03-06T18:08:30.378Z,101410.22
2024-03-06T18:10:57.141Z,101412.91
2024-03-06T18:13:23.665Z,101416.09
2024-03-06T18:15:53.103Z,101421.09
2024-03-06T18:18:20.475Z,101416.44
2024-03-06T18:20:47.996Z,101414.13
2024-03-06T18:23:14.824Z,101417.03
2024-03-06T18:25:41.436Z,101416.22
2024-03-06T18:28:08.243Z,101417.59
2024-03-06T18:30:34.900Z,101420.97
2024-03-06T18:33:02.832Z,101414.13
2024-03-06T18:35:29.659Z,101419.94
2024-03-06T18:37:57.911Z,101419.72
2024-03-06T18:40:27.192Z,101421.09
2024-03-06T18:42:54.736Z,101426.53
2024-03-06T18:45:21.545Z,101424.13
2024-03-06T18:47:48.438Z,101426.78
2024-03-06T18:50:16.596Z,101431.09
2024-03-06T18:52:43.641Z,101425.50
2024-03-06T18:55:11.499Z,101424.22
2024-03-06T18:57:39.452Z,101425.03
2024-03-06T19:00:07.228Z,101432.94
2024-03-06T19:02:34.299Z,101427.59
2024-03-06T19:05:01.289Z,101424.47
2024-03-06T19:07:29.386Z,101429.47
2024-03-06T19:09:56.847Z,101431.88
2024-03-06T19:12:24.112Z,101426.88
2024-03-06T19:14:50.604Z,101432.25
2024-03-06T19:17:18.393Z,101438.75
2024-03-06T19:19:44.907Z,101441.75
2024-03-06T19:22:11.647Z,101437.56
2024-03-06T19:24:39.069Z,101439.31
2024-03-06T19:27:05.997Z,101445.00
2024-03-06T19:29:33.309Z,101444.78
2024-03-06T19:32:04.736Z,101438.63
2024-03-06T19:34:32.476Z,101437.09
2024-03-06T19:37:00.687Z,101436.75
2024-03-06T19:39:27.531Z,101444.88
2024-03-06T19:41:54.436Z,101445.00
2024-03-06T19:44:22.326Z,101442.06
2024-03-06T19:46:49.492Z,101435.00
2024-03-06T19:49:16.011Z,101438.84
2024-03-06T19:51:43.959Z,101435.91
2024-03-06T19:54:10.501Z,101444.97
2024-03-06T19:56:37.145Z,101445.31
2024-03-06T19:59:05.166Z,101452.78
2024-03-06T20:01:32.088Z,101452.72
2024-03-06T20:03:59.345Z,101442.56
2024-03-06T20:06:27.783Z,101442.19
2024-03-06T20:08:55.157Z,101449.66
2024-03-06T20:11:22.117Z,101455.34
2024-03-06T20:13:48.962Z,101445.78
2024-03-06T20:16:15.549Z,101451.56
2024-03-06T20:18:42.238Z,101445.25
2024-03-06T20:21:09.755Z,101458.19
2024-03-06T20:23:36.398Z,101454.72
2024-03-06T20:26:03.078Z,101447.09
2024-03-06T20:28:29.770Z,101452.66
2024-03-06T20:30:57.159Z,101455.63
2024-03-06T20:33:24.554Z,101457.94
2024-03-06T20:35:51.161Z,101464.06
2024-03-06T20:38:19.340Z,101462.34
2024-03-06T20:40:49.174Z,101466.53
2024-03-06T20:43:16.056Z,101462.63
2024-03-06T20:45:44.809Z,101471.09
2024-03-06T20:48:11.522Z,101476.81
2024-03-06T20:50:39.626Z,101475.50
2024-03-06T20:53:06.260Z,101477.78
2024-03-06T20:55:33.231Z,101476.16
2024-03-06T20:57:59.773Z,101475.72
2024-03-06T21:00:27.091Z,101477.19
2024-03-06T21:02:54.321Z,101481.91
2024-03-06T21:05:21.162Z,101493.56
2024-03-06T21:07:49.242Z,101490.66
2024-03-06T21:10:16.566Z,101496.69
2024-03-06T21:12:48.358Z,101494.91
2024-03-06T21:15:16.324Z,101490.16
2024-03-06T21:17:43.768Z,101488.38
2024-03-06T21:20:13.958Z,101489.38
2024-03-06T21:22:45.131Z,101491.16
2024-03-06T21:25:14.102Z,101491.00
2024-03-06T21:27:41.289Z,101489.38
2024-03-06T21:30:09.273Z,101499.19
2024-03-06T21:32:39.659Z,101500.84
2024-03-06T21:35:06.707Z,101504.44
2024-03-06T21:37:34.113Z,101504.31
2024-03-06T21:40:03.963Z,101503.66
2024-03-06T21:42:31.802Z,101509.38
2024-03-06T21:44:58.766Z,101511.84
2024-03-06T21:47:25.768Z,101510.38
2024-03-06T21:49:52.509Z,101518.34
2024-03-06T21:52:19.230Z,101516.09
2024-03-06T21:54:45.978Z,101504.50
2024-03-06T21:57:12.936Z,101517.22
2024-03-06T21:59:42.739Z,101513.13
2024-03-06T22:02:12.012Z,101511.34
2024-03-06T22:04:40.239Z,101517.22
2024-03-06T22:07:06.821Z,101512.47
2024-03-06T22:09:34.436Z,101510.97
2024-03-06T22:12:03.313Z,101508.88
2024-03-06T22:14:31.105Z,101514.72
2024-03-06T22:16:58.983Z,101517.44
2024-03-06T22:19:25.955Z,101519.03
2024-03-06T22:21:52.646Z,101522.38
2024-03-06T22:24:22.454Z,101521.00
2024-03-06T22:26:49.569Z,101527.41
2024-03-06T22:29:17.285Z,101514.78
2024-03-06T22:31:45.230Z,101522.63
2024-03-06T22:34:11.812Z,101515.88
2024-03-06T22:36:39.307Z,101520.75
2024-03-06T22:39:06.307Z,101514.38
2024-03-06T22:41:33.004Z,101523.09
2024-03-06T22:43:59.713Z,101521.50
2024-03-06T22:46:26.241Z,101519.19
2024-03-06T22:48:53.570Z,101524.72
2024-03-06T22:51:20.241Z,101523.06
2024-03-06T22:53:48.831Z,101524.53
2024-03-06T22:56:15.973Z,101524.03
2024-03-06T22:58:42.923Z,101524.69
2024-03-06T23:01:09.579Z,101534.41
2024-03-06T23:03:36.388Z,101535.75
2024-03-06T23:06:03.428Z,101530.56
2024-03-06T23:08:30.517Z,101529.44
2024-03-06T23:10:59.297Z,101530.47
2024-03-06T23:13:26.514Z,101530.28
2024-03-06T23:15:53.626Z,101526.03
2024-03-06T23:18:21.525Z,101532.88
2024-03-06T23:20:50.187Z,101527.09
2024-03-06T23:23:16.925Z,101534.97
2024-03-06T23:25:43.474Z,101540.88
2024-03-06T23:28:14.198Z,101540.00
2024-03-06T23:30:41.891Z,101541.28
2024-03-06T23:33:09.230Z,101538.50
2024-03-06T23:35:36.060Z,101535.75
2024-03-06T23:38:02.636Z,101535.16
2024-03-06T23:40:30.698Z,101534.34
2024-03-06T23:42:58.510Z,101535.69
2024-03-06T23:45:26.954Z,101540.34
2024-03-06T23:47:53.754Z,101541.28
2024-03-06T23:50:21.855Z,101545.56
2024-03-06T23:52:49.689Z,101534.94
2024-03-06T23:55:17.213Z,101544.16
2024-03-06T23:57:44.232Z,101543.16
